Time;durP1;ratioP1;P1;durP2;ratioP2;P2;SDS_P1;SDS_P2;PMS_P1;PMS_P2;Temp;Humidity;BMP_temperature;BMP_pressure;BME280_temperature;BME280_humidity;BME280_pressure;Samples;Min_cycle;Max_cycle;Signal;HPM_P1;HPM_P2
2022/12/14 00:00:35;;;;;;;;;;;;;;;;;;4998304;28;19925;-94
2022/12/14 00:03:01;;;;;;;;;;;;;;;;;;4998500;28;19972;-93
2022/12/14 00:05:27;;;;;;;;;;;;;;;;;;4998265;28;19921;-94
2022/12/14 00:07:53;;;;;;;;;;;;;;;;;;4998589;28;19932;-94
2022/12/14 00:10:19;;;;;;;;;;;;;;;;;;4998354;28;19947;-95
2022/12/14 00:12:45;;;;;;;;;;;;;;;;;;4998959;28;20378;-94
2022/12/14 00:15:11;;;;;;;;;;;;;;;;;;4998671;28;19921;-95
2022/12/14 00:17:37;;;;;;;;;;;;;;;;;;4998527;28;20395;-95
2022/12/14 00:20:04;;;;;;;;;;;;;;;;;;5014424;28;20087;-96
2022/12/14 00:22:29;;;;;;;;;;;;;;;;;;4998123;28;19921;-95
2022/12/14 00:24:55;;;;;;;;;;;;;;;;;;4997887;28;19928;-95
2022/12/14 00:27:21;;;;;;;;;;;;;;;;;;4998453;28;19970;-95
2022/12/14 00:29:47;;;;;;;;;;;;;;;;;;4998111;28;19929;-96
2022/12/14 00:32:19;;;;;;;;;;;;;;;;;;4998739;28;19936;-95
2022/12/14 00:34:50;;;;;;;;;;;;;;;;;;4998182;28;20422;-95
2022/12/14 00:37:16;;;;;;;;;;;;;;;;;;4998194;28;19925;-94
2022/12/14 00:39:42;;;;;;;;;;;;;;;;;;4982252;28;19929;-95
2022/12/14 00:42:11;;;;;;;;;;;;;;;;;;4981457;28;19928;-94
2022/12/14 00:44:37;;;;;;;;;;;;;;;;;;4981487;28;19953;-95
2022/12/14 00:47:03;;;;;;;;;;;;;;;;;;4981556;28;19933;-95
2022/12/14 00:49:29;;;;;;;;;;;;;;;;;;4982363;28;19971;-95
2022/12/14 00:51:55;;;;;;;;;;;;;;;;;;4981068;28;20392;-94
2022/12/14 00:54:21;;;;;;;;;;;;;;;;;;4982057;28;20266;-94
2022/12/14 00:56:47;;;;;;;;;;;;;;;;;;4981225;28;19933;-94
2022/12/14 00:59:13;;;;;;;;;;;;;;;;;;4981475;28;19929;-94
2022/12/14 01:01:39;;;;;;;;;;;;;;;;;;4981234;28;19929;-94
2022/12/14 01:04:18;;;;;;;;;;;;;;;;;;4981537;28;20361;-94
2022/12/14 01:06:44;;;;;;;;;;;;;;;;;;4981960;28;20463;-94
2022/12/14 01:09:10;;;;;;;;;;;;;;;;;;4981339;28;19976;-93
2022/12/14 01:11:47;;;;;;;;;;;;;;;;;;;;;
2022/12/14 01:14:13;;;;;;;;;;;;;;;;;;4997805;28;19952;-95
2022/12/14 01:16:39;;;;;;;;;;;;;;;;;;4996599;28;19921;-96
2022/12/14 01:19:05;;;;;;;;;;;;;;;;;;4980643;28;20344;-96
2022/12/14 01:21:31;;;;;;;;;;;;;;;;;;4981208;28;19921;-95
2022/12/14 01:24:02;;;;;;;;;;;;;;;;;;4981377;28;19984;-95
2022/12/14 01:26:29;;;;;;;;;;;;;;;;;;4982026;28;20016;-95
2022/12/14 01:28:56;;;;;;;;;;;;;;;;;;5002527;28;19936;-94
2022/12/14 01:31:22;;;;;;;;;;;;;;;;;;5001670;28;19974;-94
2022/12/14 01:33:49;;;;;;;;;;;;;;;;;;4981637;28;19922;-94
2022/12/14 01:36:15;;;;;;;;;;;;;;;;;;4990721;28;19932;-93
2022/12/14 01:38:40;;;;;;;;;;;;;;;;;;5001200;28;20004;-94
2022/12/14 01:41:06;;;;;;;;;;;;;;;;;;5000239;28;20253;-94
2022/12/14 01:43:32;;;;;;;;;;;;;;;;;;5013797;28;20446;-95
2022/12/14 01:45:58;;;;;;;;;;;;;;;;;;5013423;28;20274;-95
2022/12/14 01:48:24;;;;;;;;;;;;;;;;;;4997029;28;19926;-94
2022/12/14 01:50:53;;;;;;;;;;;;;;;;;;4996841;28;19925;-93
2022/12/14 01:53:19;;;;;;;;;;;;;;;;;;4996616;28;19948;-94
2022/12/14 01:55:51;;;;;;;;;;;;;;;;;;4997184;28;19922;-95
2022/12/14 01:58:17;;;;;;;;;;;;;;;;;;5013349;28;20373;-95
2022/12/14 02:00:43;;;;;;;;;;;;;;;;;;4996539;28;19928;-96
2022/12/14 02:03:09;;;;;;;;;;;;;;;;;;5014176;28;19929;-96
2022/12/14 02:05:35;;;;;;;;;;;;;;;;;;5000717;28;19921;-95
2022/12/14 02:08:01;;;;;;;;;;;;;;;;;;5000668;28;20289;-94
2022/12/14 02:10:27;;;;;;;;;;;;;;;;;;5000736;28;19921;-94
2022/12/14 02:12:53;;;;;;;;;;;;;;;;;;5000849;28;20012;-96
2022/12/14 02:15:19;;;;;;;;;;;;;;;;;;5000653;28;19999;-94
2022/12/14 02:17:50;;;;;;;;;;;;;;;;;;5001142;28;19922;-95
2022/12/14 02:20:16;;;;;;;;;;;;;;;;;;5016829;28;20028;-95
2022/12/14 02:22:44;;;;;;;;;;;;;;;;;;5000612;28;19961;-95
2022/12/14 02:25:10;;;;;;;;;;;;;;;;;;5000464;28;19928;-93
2022/12/14 02:27:35;;;;;;;;;;;;;;;;;;5000168;28;20024;-94
2022/12/14 02:30:02;;;;;;;;;;;;;;;;;;4999948;28;19922;-96
2022/12/14 02:32:28;;;;;;;;;;;;;;;;;;5016911;28;19965;-94
2022/12/14 02:34:54;;;;;;;;;;;;;;;;;;5016937;28;19921;-95
2022/12/14 02:37:20;;;;;;;;;;;;;;;;;;5003405;28;19922;-94
2022/12/14 02:39:46;;;;;;;;;;;;;;;;;;5003402;28;19925;-95
2022/12/14 02:42:14;;;;;;;;;;;;;;;;;;5002832;28;19974;-94
2022/12/14 02:44:40;;;;;;;;;;;;;;;;;;5003110;28;19933;-92
2022/12/14 02:47:15;;;;;;;;;;;;;;;;;;5003224;28;19928;-94
2022/12/14 02:49:40;;;;;;;;;;;;;;;;;;5003258;28;19921;-94
2022/12/14 02:52:06;;;;;;;;;;;;;;;;;;5002770;28;19929;-94
2022/12/14 02:54:32;;;;;;;;;;;;;;;;;;5002867;28;20011;-94
2022/12/14 02:56:58;;;;;;;;;;;;;;;;;;5019195;28;19920;-94
2022/12/14 02:59:24;;;;;;;;;;;;;;;;;;5002876;28;20265;-94
2022/12/14 03:01:50;;;;;;;;;;;;;;;;;;5019277;28;19936;-93
2022/12/14 03:04:16;;;;;;;;;;;;;;;;;;5002858;28;19921;-95
2022/12/14 03:06:42;;;;;;;;;;;;;;;;;;5003117;28;19975;-93
2022/12/14 03:09:09;;;;;;;;;;;;;;;;;;5018825;28;19928;-93
2022/12/14 03:11:35;;;;;;;;;;;;;;;;;;5002714;28;20253;-94
2022/12/14 03:14:01;;;;;;;;;;;;;;;;;;5003104;28;19921;-95
2022/12/14 03:16:27;;;;;;;;;;;;;;;;;;5004804;28;19924;-95
2022/12/14 03:18:53;;;;;;;;;;;;;;;;;;5020724;28;19933;-96
2022/12/14 03:21:19;;;;;;;;;;;;;;;;;;5002809;28;19921;-94
2022/12/14 03:23:49;;;;;;;;;;;;;;;;;;5002638;28;19921;-94
2022/12/14 03:26:16;;;;;;;;;;;;;;;;;;5018673;28;19925;-94
2022/12/14 03:28:44;;;;;;;;;;;;;;;;;;5002609;28;20380;-95
2022/12/14 03:31:10;;;;;;;;;;;;;;;;;;5002201;28;20019;-94
2022/12/14 03:33:36;;;;;;;;;;;;;;;;;;5002042;28;19957;-94
2022/12/14 03:36:02;;;;;;;;;;;;;;;;;;5002175;28;19931;-95
2022/12/14 03:38:28;;;;;;;;;;;;;;;;;;5018685;28;20059;-94
2022/12/14 03:40:54;;;;;;;;;;;;;;;;;;5001907;28;19921;-94
2022/12/14 03:43:20;;;;;;;;;;;;;;;;;;5001864;28;19921;-92
2022/12/14 03:45:45;;;;;;;;;;;;;;;;;;5002373;28;20051;-95
2022/12/14 03:48:11;;;;;;;;;;;;;;;;;;5002394;28;19964;-94
2022/12/14 03:50:37;;;;;;;;;;;;;;;;;;5002179;28;19932;-94
2022/12/14 03:53:06;;;;;;;;;;;;;;;;;;5018260;28;19925;-94
2022/12/14 03:55:32;;;;;;;;;;;;;;;;;;5002318;28;19975;-94
2022/12/14 03:58:01;;;;;;;;;;;;;;;;;;5018667;28;19925;-95
2022/12/14 04:00:32;;;;;;;;;;;;;;;;;;5018467;28;20319;-93
2022/12/14 04:02:58;;;;;;;;;;;;;;;;;;5018175;28;19928;-95
2022/12/14 04:05:25;;;;;;;;;;;;;;;;;;5002095;28;19921;-96
2022/12/14 04:07:51;;;;;;;;;;;;;;;;;;5001940;28;19921;-94
2022/12/14 04:21:15;;;;;;;;;;;;;;;;;;5017984;28;19921;-95
2022/12/14 04:26:29;;;;;;;;;;;;;;;;;;5016963;28;19921;-95
2022/12/14 04:31:40;;;;;;;;;;;;;;;;;;5017458;28;20380;-92
2022/12/14 04:34:09;;;;;;;;;;;;;;;;;;5001677;28;20373;-93
2022/12/14 04:36:35;;;;;;;;;;;;;;;;;;5001007;28;19972;-92
2022/12/14 04:39:01;;;;;;;;;;;;;;;;;;5000781;28;19979;-93
2022/12/14 04:41:27;;;;;;;;;;;;;;;;;;5001058;28;19925;-93
2022/12/14 04:43:53;;;;;;;;;;;;;;;;;;5000967;28;19932;-93
2022/12/14 04:46:19;;;;;;;;;;;;;;;;;;5000874;28;20019;-93
2022/12/14 04:48:45;;;;;;;;;;;;;;;;;;5000790;28;20010;-94
2022/12/14 04:51:11;;;;;;;;;;;;;;;;;;5000649;28;19928;-93
2022/12/14 04:53:37;;;;;;;;;;;;;;;;;;5000707;28;20442;-92
2022/12/14 04:56:03;;;;;;;;;;;;;;;;;;5017514;28;19948;-94
2022/12/14 04:58:28;;;;;;;;;;;;;;;;;;5000827;28;19921;-95
2022/12/14 05:00:54;;;;;;;;;;;;;;;;;;5000152;28;19971;-94
2022/12/14 05:03:20;;;;;;;;;;;;;;;;;;5000837;28;20361;-93
2022/12/14 05:05:46;;;;;;;;;;;;;;;;;;5000643;28;19960;-93
2022/12/14 05:08:12;;;;;;;;;;;;;;;;;;5016790;28;20822;-94
2022/12/14 05:10:38;;;;;;;;;;;;;;;;;;5000283;28;20038;-95
2022/12/14 05:13:04;;;;;;;;;;;;;;;;;;5000304;28;20008;-93
2022/12/14 05:15:34;;;;;;;;;;;;;;;;;;5000485;28;19987;-93
2022/12/14 05:18:00;;;;;;;;;;;;;;;;;;5000677;28;19921;-92
2022/12/14 05:20:26;;;;;;;;;;;;;;;;;;5016473;28;19947;-92
2022/12/14 05:22:53;;;;;;;;;;;;;;;;;;5011107;28;19921;-92
2022/12/14 05:25:19;;;;;;;;;;;;;;;;;;5019426;28;19921;-92
2022/12/14 05:27:45;;;;;;;;;;;;;;;;;;5035911;28;19920;-94
2022/12/14 05:30:17;;;;;;;;;;;;;;;;;;5004219;28;20280;-95
2022/12/14 05:32:43;;;;;;;;;;;;;;;;;;5010359;28;19952;-94
2022/12/14 05:35:09;;;;;;;;;;;;;;;;;;5020622;28;19909;-92
2022/12/14 05:37:35;;;;;;;;;;;;;;;;;;5012160;28;19940;-95
2022/12/14 05:40:01;;;;;;;;;;;;;;;;;;5002326;28;19933;-95
2022/12/14 05:42:30;;;;;;;;;;;;;;;;;;5002322;28;19921;-92
2022/12/14 05:44:59;;;;;;;;;;;;;;;;;;5016709;28;20284;-94
2022/12/14 06:08:50;;;;;;;;;;;;;;;;;;5033326;28;20003;-93
2022/12/14 06:11:16;;;;;;;;;;;;;;;;;;4999049;28;19921;-93
2022/12/14 06:13:42;;;;;;;;;;;;;;;;;;4999252;28;19921;-92
2022/12/14 06:16:11;;;;;;;;;;;;;;;;;;5000215;28;19923;-93
2022/12/14 06:18:36;;;;;;;;;;;;;;;;;;4999900;28;19975;-92
2022/12/14 06:21:11;;;;;;;;;;;;;;;;;;5000201;28;19931;-95
2022/12/14 06:23:37;;;;;;;;;;;;;;;;;;5016030;28;19968;-95
2022/12/14 06:26:09;;;;;;;;;;;;;;;;;;5016934;28;19931;-94
2022/12/14 06:28:35;;;;;;;;;;;;;;;;;;5002368;28;19972;-94
2022/12/14 06:31:01;;;;;;;;;;;;;;;;;;5019281;28;20028;-94
2022/12/14 06:33:27;;;;;;;;;;;;;;;;;;5000527;28;20093;-94
2022/12/14 06:35:53;;;;;;;;;;;;;;;;;;4999840;28;20292;-94
2022/12/14 06:38:19;;;;;;;;;;;;;;;;;;4999869;28;19921;-95
2022/12/14 06:40:45;;;;;;;;;;;;;;;;;;4999968;28;19988;-94
2022/12/14 06:43:11;;;;;;;;;;;;;;;;;;4999574;28;20016;-94
2022/12/14 06:45:40;;;;;;;;;;;;;;;;;;4999234;28;19925;-94
2022/12/14 06:48:06;;;;;;;;;;;;;;;;;;5000698;28;19921;-96
2022/12/14 06:50:37;;;;;;;;;;;;;;;;;;5006765;28;19921;-94
2022/12/14 06:53:03;;;;;;;;;;;;;;;;;;5005360;28;19976;-96
2022/12/14 06:55:32;;;;;;;;;;;;;;;;;;5022379;28;19921;-95
2022/12/14 06:57:58;;;;;;;;;;;;;;;;;;5004042;28;20347;-95
2022/12/14 07:00:24;;;;;;;;;;;;;;;;;;5002567;28;19932;-95
2022/12/14 07:02:50;;;;;;;;;;;;;;;;;;5002765;28;19936;-95
2022/12/14 07:05:16;;;;;;;;;;;;;;;;;;5002593;28;19921;-96
2022/12/14 07:07:42;;;;;;;;;;;;;;;;;;5002802;28;19928;-96
2022/12/14 07:10:08;;;;;;;;;;;;;;;;;;5019201;28;20007;-94
2022/12/14 07:12:34;;;;;;;;;;;;;;;;;;5002472;28;19971;-95
2022/12/14 07:15:02;;;;;;;;;;;;;;;;;;5002170;28;19925;-93
2022/12/14 07:17:28;;;;;;;;;;;;;;;;;;5002526;28;19932;-96
2022/12/14 07:19:57;;;;;;;;;;;;;;;;;;5019898;28;19933;-96
2022/12/14 07:22:39;;;;;;;;;;;;;;;;;;5002193;28;19925;-96
2022/12/14 07:25:10;;;;;;;;;;;;;;;;;;5003689;28;19979;-94
2022/12/14 07:27:39;;;;;;;;;;;;;;;;;;5003178;28;19952;-96
2022/12/14 07:30:06;;;;;;;;;;;;;;;;;;5003061;28;19952;-96
2022/12/14 07:32:36;;;;;;;;;;;;;;;;;;5019204;28;20262;-93
2022/12/14 07:35:02;;;;;;;;;;;;;;;;;;5021643;28;19928;-96
2022/12/14 07:37:27;;;;;;;;;;;;;;;;;;5021094;28;20016;-96
2022/12/14 07:39:55;;;;;;;;;;;;;;;;;;5001776;28;19925;-95
2022/12/14 07:42:21;;;;;;;;;;;;;;;;;;5001704;28;19921;-95
2022/12/14 07:44:47;;;;;;;;;;;;;;;;;;5001760;28;19932;-94
2022/12/14 07:47:13;;;;;;;;;;;;;;;;;;5001814;28;19925;-95
2022/12/14 07:49:39;;;;;;;;;;;;;;;;;;5018329;28;20363;-95
2022/12/14 07:52:07;;;;;;;;;;;;;;;;;;5001971;28;20307;-95
2022/12/14 07:54:33;;;;;;;;;;;;;;;;;;5001831;28;19932;-96
2022/12/14 07:56:59;;;;;;;;;;;;;;;;;;5002203;28;19929;-95
2022/12/14 07:59:25;;;;;;;;;;;;;;;;;;5001721;28;19987;-95
2022/12/14 08:01:51;;;;;;;;;;;;;;;;;;5017700;28;19967;-94
2022/12/14 08:04:17;;;;;;;;;;;;;;;;;;5001495;28;19921;-94
2022/12/14 08:06:45;;;;;;;;;;;;;;;;;;5001558;28;19928;-95
2022/12/14 08:09:11;;;;;;;;;;;;;;;;;;5019376;28;19921;-93
2022/12/14 08:11:37;;;;;;;;;;;;;;;;;;5001209;28;20008;-92
2022/12/14 08:14:04;;;;;;;;;;;;;;;;;;5017527;28;19969;-93
2022/12/14 08:16:31;;;;;;;;;;;;;;;;;;5001116;28;19929;-94
2022/12/14 08:18:57;;;;;;;;;;;;;;;;;;5001233;28;19932;-94
2022/12/14 08:21:23;;;;;;;;;;;;;;;;;;5016879;28;20316;-94
2022/12/14 08:23:49;;;;;;;;;;;;;;;;;;5016665;28;19930;-94
2022/12/14 08:26:15;;;;;;;;;;;;;;;;;;5000801;28;20035;-94
2022/12/14 08:28:41;;;;;;;;;;;;;;;;;;5017487;28;19921;-93
2022/12/14 08:31:16;;;;;;;;;;;;;;;;;;5017641;28;19928;-96
2022/12/14 08:33:42;;;;;;;;;;;;;;;;;;5000762;28;20419;-92
2022/12/14 08:36:08;;;;;;;;;;;;;;;;;;5016520;28;19972;-94
2022/12/14 08:38:34;;;;;;;;;;;;;;;;;;5000132;28;19922;-91
2022/12/14 08:41:00;;;;;;;;;;;;;;;;;;5006255;28;19921;-91
2022/12/14 08:43:26;;;;;;;;;;;;;;;;;;5009760;28;19921;-93
2022/12/14 08:45:52;;;;;;;;;;;;;;;;;;5035586;28;19913;-91
2022/12/14 08:48:24;;;;;;;;;;;;;;;;;;5025382;28;19913;-93
2022/12/14 08:50:50;;;;;;;;;;;;;;;;;;5023250;28;19925;-93
2022/12/14 08:53:15;;;;;;;;;;;;;;;;;;5016954;28;20024;-92
2022/12/14 08:55:41;;;;;;;;;;;;;;;;;;5016470;28;19928;-94
2022/12/14 08:58:07;;;;;;;;;;;;;;;;;;5000221;28;19921;-93
2022/12/14 09:00:33;;;;;;;;;;;;;;;;;;5016288;28;19933;-93
2022/12/14 09:02:59;;;;;;;;;;;;;;;;;;5016310;28;19921;-94
2022/12/14 09:05:25;;;;;;;;;;;;;;;;;;5016411;28;20346;-94
2022/12/14 09:07:51;;;;;;;;;;;;;;;;;;5015505;28;20327;-92
2022/12/14 09:10:17;;;;;;;;;;;;;;;;;;5015750;28;19944;-91
2022/12/14 09:12:43;;;;;;;;;;;;;;;;;;5015410;28;20296;-91
2022/12/14 09:15:09;;;;;;;;;;;;;;;;;;5018494;28;19921;-89
2022/12/14 09:17:35;;;;;;;;;;;;;;;;;;5017576;28;19960;-89
2022/12/14 09:20:01;;;;;;;;;;;;;;;;;;5008165;28;19948;-90
2022/12/14 09:22:27;;;;;;;;;;;;;;;;;;5004478;28;19921;-91
2022/12/14 09:24:53;;;;;;;;;;;;;;;;;;5002912;28;19925;-92
2022/12/14 09:27:21;;;;;;;;;;;;;;;;;;5001535;28;19921;-94
2022/12/14 09:29:47;;;;;;;;;;;;;;;;;;5000199;28;19925;-94
2022/12/14 09:32:13;;;;;;;;;;;;;;;;;;5000183;28;19925;-93
2022/12/14 09:34:39;;;;;;;;;;;;;;;;;;5016330;28;19968;-94
2022/12/14 09:37:08;;;;;;;;;;;;;;;;;;4999811;28;19926;-94
2022/12/14 09:39:34;;;;;;;;;;;;;;;;;;4999662;28;19925;-94
2022/12/14 09:42:00;;;;;;;;;;;;;;;;;;4999760;28;19922;-91
2022/12/14 09:44:26;;;;;;;;;;;;;;;;;;5016005;28;20329;-93
2022/12/14 09:46:58;;;;;;;;;;;;;;;;;;5000625;28;19952;-96
2022/12/14 09:49:27;;;;;;;;;;;;;;;;;;4999817;28;19921;-94
2022/12/14 09:51:55;;;;;;;;;;;;;;;;;;4999970;28;19920;-95
2022/12/14 09:54:21;;;;;;;;;;;;;;;;;;5000090;28;19928;-93
2022/12/14 09:56:50;;;;;;;;;;;;;;;;;;5000419;28;19937;-95
2022/12/14 09:59:16;;;;;;;;;;;;;;;;;;5000023;28;19979;-93
2022/12/14 10:01:41;;;;;;;;;;;;;;;;;;4999464;28;20438;-92
2022/12/14 10:04:08;;;;;;;;;;;;;;;;;;5017201;28;19921;-94
2022/12/14 10:06:34;;;;;;;;;;;;;;;;;;5001833;28;19921;-92
2022/12/14 10:09:01;;;;;;;;;;;;;;;;;;4999254;28;19921;-91
2022/12/14 10:11:30;;;;;;;;;;;;;;;;;;4998955;28;19925;-95
2022/12/14 10:14:02;;;;;;;;;;;;;;;;;;4999860;28;19921;-94
2022/12/14 10:16:30;;;;;;;;;;;;;;;;;;5017405;28;19928;-92
2022/12/14 10:18:59;;;;;;;;;;;;;;;;;;5016525;28;20016;-94
2022/12/14 10:21:34;;;;;;;;;;;;;;;;;;5015688;28;19928;-92
2022/12/14 10:24:05;;;;;;;;;;;;;;;;;;5016851;28;19927;-93
2022/12/14 10:26:33;;;;;;;;;;;;;;;;;;5006271;28;19921;-91
2022/12/14 10:29:08;;;;;;;;;;;;;;;;;;5019583;28;19925;-94
2022/12/14 10:31:34;;;;;;;;;;;;;;;;;;5003629;28;20398;-91
2022/12/14 10:33:59;;;;;;;;;;;;;;;;;;5002064;28;19940;-90
2022/12/14 10:36:28;;;;;;;;;;;;;;;;;;5019157;28;20003;-92
2022/12/14 10:38:57;;;;;;;;;;;;;;;;;;5003042;28;19929;-95
2022/12/14 10:41:29;;;;;;;;;;;;;;;;;;5004839;28;20335;-94
2022/12/14 10:43:55;;;;;;;;;;;;;;;;;;5004250;28;19921;-96
2022/12/14 10:46:21;;;;;;;;;;;;;;;;;;5003664;28;19928;-95
2022/12/14 10:48:47;;;;;;;;;;;;;;;;;;5000477;28;19932;-95
2022/12/14 10:51:16;;;;;;;;;;;;;;;;;;5302888;23;19967;-94
2022/12/14 10:53:41;;;;;;;;;;;;;;;;;;4983471;28;20003;-93
2022/12/14 10:56:08;;;;;;;;;;;;;;;;;;4982968;28;20192;-94
2022/12/14 10:58:34;;;;;;;;;;;;;;;;;;4984102;28;20258;-96
2022/12/14 11:44:26;;;;;;;;;;;;;;;;;;5284184;23;19928;-95
2022/12/14 11:47:19;;;;;;;;;;;;;;;;;;5007403;28;19940;-93
2022/12/14 11:49:48;;;;;;;;;;;;;;;;;;5014714;28;20381;-94
2022/12/14 11:52:32;;;;;;;;;;;;;;;;;;5020385;28;19920;-94
2022/12/14 11:55:03;;;;;;;;;;;;;;;;;;5018295;28;19971;-94
2022/12/14 11:57:32;;;;;;;;;;;;;;;;;;5018017;28;19929;-94
2022/12/14 12:00:05;;;;;;;;;;;;;;;;;;5035686;28;19932;-95
2022/12/14 12:02:35;;;;;;;;;;;;;;;;;;5017343;28;19990;-93
2022/12/14 12:05:07;;;;;;;;;;;;;;;;;;5001415;28;20462;-94
2022/12/14 12:07:36;;;;;;;;;;;;;;;;;;5001309;28;19925;-93
2022/12/14 12:10:02;;;;;;;;;;;;;;;;;;5017416;28;19984;-94
2022/12/14 12:12:28;;;;;;;;;;;;;;;;;;5017149;28;19974;-90
2022/12/14 12:14:54;;;;;;;;;;;;;;;;;;5018322;28;19925;-93
2022/12/14 12:17:20;;;;;;;;;;;;;;;;;;5002849;28;19924;-90
2022/12/14 12:19:46;;;;;;;;;;;;;;;;;;5000000;28;19929;-92
2022/12/14 12:22:12;;;;;;;;;;;;;;;;;;5000274;28;19987;-94
2022/12/14 12:24:39;;;;;;;;;;;;;;;;;;4999606;28;19952;-92
2022/12/14 12:27:10;;;;;;;;;;;;;;;;;;5018723;28;19921;-92
2022/12/14 12:29:36;;;;;;;;;;;;;;;;;;5020175;28;20367;-92
2022/12/14 12:32:02;;;;;;;;;;;;;;;;;;5001861;28;19925;-92
2022/12/14 12:37:36;;;;;;;;;;;;;;;;;;5047650;28;19920;-96
2022/12/14 12:40:04;;;;;;;;;;;;;;;;;;5031807;28;19929;-90
2022/12/14 12:42:37;;;;;;;;;;;;;;;;;;5001245;28;19921;-95
2022/12/14 12:51:49;;;;;;;;;;;;;;;;;;5555268;23;19947;-93
2022/12/14 12:54:25;;;;;;;;;;;;;;;;;;5001844;28;20012;-93
2022/12/14 12:57:03;;;;;;;;;;;;;;;;;;4999483;28;19925;-95
2022/12/14 12:59:29;;;;;;;;;;;;;;;;;;4997774;28;20381;-94
2022/12/14 13:01:57;;;;;;;;;;;;;;;;;;4997234;28;19925;-93
2022/12/14 13:04:23;;;;;;;;;;;;;;;;;;5016443;28;19928;-92
2022/12/14 13:07:07;;;;;;;;;;;;;;;;;;5013927;28;19920;-90
2022/12/14 13:09:37;;;;;;;;;;;;;;;;;;5013859;28;20395;-92
2022/12/14 13:15:01;;;;;;;;;;;;;;;;;;5174021;23;19925;-93
2022/12/14 13:17:27;;;;;;;;;;;;;;;;;;5021923;28;19955;-93
2022/12/14 13:19:54;;;;;;;;;;;;;;;;;;5038540;28;19972;-94
2022/12/14 13:22:22;;;;;;;;;;;;;;;;;;5001162;28;19947;-94
2022/12/14 13:24:49;;;;;;;;;;;;;;;;;;5000159;28;19932;-92
2022/12/14 13:27:22;;;;;;;;;;;;;;;;;;5032809;28;19921;-92
2022/12/14 13:29:53;;;;;;;;;;;;;;;;;;5017848;28;20426;-93
2022/12/14 13:32:19;;;;;;;;;;;;;;;;;;5015777;28;20300;-93
2022/12/14 13:34:47;;;;;;;;;;;;;;;;;;4998796;28;23173;-94
2022/12/14 13:37:16;;;;;;;;;;;;;;;;;;4999518;28;19928;-94
2022/12/14 13:39:44;;;;;;;;;;;;;;;;;;4998690;28;20380;-93
2022/12/14 13:42:10;;;;;;;;;;;;;;;;;;4998992;28;19921;-94
2022/12/14 13:44:36;;;;;;;;;;;;;;;;;;4998914;28;19995;-93
2022/12/14 13:47:02;;;;;;;;;;;;;;;;;;4999301;28;20384;-94
2022/12/14 13:49:27;;;;;;;;;;;;;;;;;;4998403;28;20451;-91
2022/12/14 13:51:54;;;;;;;;;;;;;;;;;;4998223;28;20011;-91
2022/12/14 13:54:20;;;;;;;;;;;;;;;;;;4998493;28;20336;-90
2022/12/14 13:56:46;;;;;;;;;;;;;;;;;;4998361;28;19921;-90
2022/12/14 13:59:12;;;;;;;;;;;;;;;;;;5014738;28;19971;-91
2022/12/14 14:01:37;;;;;;;;;;;;;;;;;;4998035;28;19925;-91
2022/12/14 14:04:03;;;;;;;;;;;;;;;;;;4998077;28;19928;-90
2022/12/14 14:06:29;;;;;;;;;;;;;;;;;;4998026;28;19921;-90
2022/12/14 14:08:55;;;;;;;;;;;;;;;;;;4998066;28;19922;-90
2022/12/14 14:11:23;;;;;;;;;;;;;;;;;;4998213;28;20281;-91
2022/12/14 14:13:49;;;;;;;;;;;;;;;;;;4998207;28;20018;-90
2022/12/14 14:16:15;;;;;;;;;;;;;;;;;;4997777;28;19925;-92
2022/12/14 14:18:41;;;;;;;;;;;;;;;;;;4998209;28;19921;-92
2022/12/14 14:21:07;;;;;;;;;;;;;;;;;;4997945;28;19940;-90
2022/12/14 14:23:32;;;;;;;;;;;;;;;;;;4998001;28;20012;-91
2022/12/14 14:25:58;;;;;;;;;;;;;;;;;;4997879;28;19968;-92
2022/12/14 14:28:24;;;;;;;;;;;;;;;;;;4998036;28;19925;-91
2022/12/14 14:30:50;;;;;;;;;;;;;;;;;;4997473;28;19978;-90
2022/12/14 14:33:16;;;;;;;;;;;;;;;;;;4998346;28;19939;-91
2022/12/14 14:35:42;;;;;;;;;;;;;;;;;;5014478;28;19927;-88
2022/12/14 14:38:08;;;;;;;;;;;;;;;;;;4998433;28;19921;-88
2022/12/14 14:40:35;;;;;;;;;;;;;;;;;;4997922;28;19990;-89
2022/12/14 14:43:03;;;;;;;;;;;;;;;;;;4998314;28;19921;-88
2022/12/14 14:45:29;;;;;;;;;;;;;;;;;;4998176;28;19921;-90
2022/12/14 14:47:55;;;;;;;;;;;;;;;;;;4998026;28;19921;-90
2022/12/14 14:50:21;;;;;;;;;;;;;;;;;;5014060;28;19921;-90
2022/12/14 14:52:47;;;;;;;;;;;;;;;;;;4997766;28;19932;-90
2022/12/14 14:55:12;;;;;;;;;;;;;;;;;;4997960;28;19928;-89
2022/12/14 14:57:38;;;;;;;;;;;;;;;;;;5014173;28;19921;-87
2022/12/14 15:00:04;;;;;;;;;;;;;;;;;;5014078;28;19929;-88
2022/12/14 15:02:30;;;;;;;;;;;;;;;;;;5013993;28;19974;-88
2022/12/14 15:04:56;;;;;;;;;;;;;;;;;;4997710;28;19925;-88
2022/12/14 15:07:22;;;;;;;;;;;;;;;;;;4998179;28;19971;-89
2022/12/14 15:09:56;;;;;;;;;;;;;;;;;;4999152;28;20364;-92
2022/12/14 15:12:22;;;;;;;;;;;;;;;;;;5007929;23;19926;-90
2022/12/14 15:14:50;;;;;;;;;;;;;;;;;;4982023;28;19999;-89
2022/12/14 15:17:16;;;;;;;;;;;;;;;;;;4997914;28;19933;-93
2022/12/14 15:19:48;;;;;;;;;;;;;;;;;;4998141;28;19925;-93
2022/12/14 15:25:00;;;;;;;;;;;;;;;;;;5034346;28;19921;-90
2022/12/14 15:33:05;;;;;;;;;;;;;;;;;;5553017;23;20368;-92
2022/12/14 15:35:31;;;;;;;;;;;;;;;;;;4982681;28;19921;-94
2022/12/14 15:38:02;;;;;;;;;;;;;;;;;;4997765;28;20468;-92
2022/12/14 15:40:31;;;;;;;;;;;;;;;;;;4997912;28;19925;-91
2022/12/14 15:42:57;;;;;;;;;;;;;;;;;;4981267;28;19987;-91
2022/12/14 15:45:23;;;;;;;;;;;;;;;;;;4981569;28;19996;-93
2022/12/14 15:47:49;;;;;;;;;;;;;;;;;;4983390;28;20209;-92
2022/12/14 15:50:15;;;;;;;;;;;;;;;;;;4991254;28;19921;-92
2022/12/14 15:52:46;;;;;;;;;;;;;;;;;;5001460;28;19925;-94
2022/12/14 15:55:42;;;;;;;;;;;;;;;;;;4998531;28;19971;-93
2022/12/14 15:58:09;;;;;;;;;;;;;;;;;;4997291;28;19922;-94
2022/12/14 16:00:35;;;;;;;;;;;;;;;;;;4982274;28;19933;-93
2022/12/14 16:03:01;;;;;;;;;;;;;;;;;;4981357;28;19921;-93
2022/12/14 16:05:27;;;;;;;;;;;;;;;;;;4981145;28;19921;-95
2022/12/14 16:07:54;;;;;;;;;;;;;;;;;;4997840;28;20277;-91
2022/12/14 16:10:20;;;;;;;;;;;;;;;;;;4996868;28;19975;-92
2022/12/14 16:12:45;;;;;;;;;;;;;;;;;;4980470;28;19921;-90
2022/12/14 16:15:11;;;;;;;;;;;;;;;;;;4980508;28;19984;-91
2022/12/14 16:17:37;;;;;;;;;;;;;;;;;;4997031;28;20281;-91
2022/12/14 16:20:03;;;;;;;;;;;;;;;;;;4996575;28;19929;-90
2022/12/14 16:22:29;;;;;;;;;;;;;;;;;;4979395;28;20418;-92
2022/12/14 16:24:55;;;;;;;;;;;;;;;;;;4981243;28;19922;-92
2022/12/14 16:27:21;;;;;;;;;;;;;;;;;;5000970;28;20380;-92
2022/12/14 16:29:57;;;;;;;;;;;;;;;;;;4997292;28;19921;-94
2022/12/14 16:32:47;;;;;;;;;;;;;;;;;;5462200;23;20449;-92
2022/12/14 16:35:13;;;;;;;;;;;;;;;;;;5001450;28;19928;-88
2022/12/14 16:37:39;;;;;;;;;;;;;;;;;;4999887;28;19925;-89
2022/12/14 16:40:05;;;;;;;;;;;;;;;;;;5016549;28;19979;-89
2022/12/14 16:42:31;;;;;;;;;;;;;;;;;;5017435;28;19925;-88
2022/12/14 16:44:56;;;;;;;;;;;;;;;;;;4999974;28;19932;-89
2022/12/14 16:47:22;;;;;;;;;;;;;;;;;;4999482;28;20135;-89
2022/12/14 16:49:49;;;;;;;;;;;;;;;;;;5000314;28;20273;-89
2022/12/14 16:52:15;;;;;;;;;;;;;;;;;;5015580;28;19928;-89
2022/12/14 16:54:41;;;;;;;;;;;;;;;;;;4999152;28;19921;-89
2022/12/14 16:57:08;;;;;;;;;;;;;;;;;;4999226;28;19979;-88
2022/12/14 16:59:34;;;;;;;;;;;;;;;;;;4999401;28;19972;-87
2022/12/14 17:02:00;;;;;;;;;;;;;;;;;;4999260;28;20376;-88
2022/12/14 17:04:26;;;;;;;;;;;;;;;;;;4998966;28;19928;-88
2022/12/14 17:06:52;;;;;;;;;;;;;;;;;;4998770;28;20015;-88
2022/12/14 17:09:18;;;;;;;;;;;;;;;;;;4998857;28;20016;-87
2022/12/14 17:11:44;;;;;;;;;;;;;;;;;;4998895;28;19925;-87
2022/12/14 17:14:10;;;;;;;;;;;;;;;;;;4998969;28;19921;-87
2022/12/14 17:16:36;;;;;;;;;;;;;;;;;;5015193;28;19921;-87
2022/12/14 17:19:02;;;;;;;;;;;;;;;;;;4998490;28;19921;-88
2022/12/14 17:21:28;;;;;;;;;;;;;;;;;;4998352;28;19932;-88
2022/12/14 17:23:53;;;;;;;;;;;;;;;;;;4998884;28;20015;-88
2022/12/14 17:26:19;;;;;;;;;;;;;;;;;;4998653;28;20004;-88
2022/12/14 17:28:45;;;;;;;;;;;;;;;;;;5014692;28;19921;-89
2022/12/14 17:31:12;;;;;;;;;;;;;;;;;;4998343;28;20016;-88
2022/12/14 17:33:38;;;;;;;;;;;;;;;;;;4997976;28;19925;-90
2022/12/14 17:36:04;;;;;;;;;;;;;;;;;;4998385;28;20000;-90
2022/12/14 17:38:30;;;;;;;;;;;;;;;;;;4998610;28;19975;-90
2022/12/14 17:40:57;;;;;;;;;;;;;;;;;;4998806;28;19925;-90
2022/12/14 17:43:23;;;;;;;;;;;;;;;;;;4998552;28;20016;-92
2022/12/14 17:45:51;;;;;;;;;;;;;;;;;;4999459;28;19921;-93
2022/12/14 17:48:17;;;;;;;;;;;;;;;;;;4998544;28;19921;-91
2022/12/14 17:50:46;;;;;;;;;;;;;;;;;;4998795;28;19925;-93
2022/12/14 17:53:13;;;;;;;;;;;;;;;;;;4998991;28;19921;-91
2022/12/14 17:55:39;;;;;;;;;;;;;;;;;;5000043;28;20008;-94
2022/12/14 17:58:08;;;;;;;;;;;;;;;;;;4999993;28;19944;-94
2022/12/14 18:05:55;;;;;;;;;;;;;;;;;;5054905;23;19925;-91
2022/12/14 18:08:21;;;;;;;;;;;;;;;;;;4995185;28;20324;-89
2022/12/14 18:10:47;;;;;;;;;;;;;;;;;;4978954;28;19984;-93
2022/12/14 18:13:16;;;;;;;;;;;;;;;;;;4979357;28;19921;-96
2022/12/14 18:15:45;;;;;;;;;;;;;;;;;;4979799;28;20101;-93
2022/12/14 18:18:11;;;;;;;;;;;;;;;;;;4995053;28;20369;-91
2022/12/14 18:20:37;;;;;;;;;;;;;;;;;;4978972;28;20308;-90
2022/12/14 18:23:03;;;;;;;;;;;;;;;;;;4995276;28;20332;-91
2022/12/14 18:25:29;;;;;;;;;;;;;;;;;;4978842;28;19917;-93
2022/12/14 18:27:56;;;;;;;;;;;;;;;;;;4978614;28;20393;-91
2022/12/14 18:30:22;;;;;;;;;;;;;;;;;;4978522;28;20012;-91
2022/12/14 18:32:48;;;;;;;;;;;;;;;;;;4978755;28;20500;-91